Time;durP1;ratioP1;P1;durP2;ratioP2;P2;SDS_P1;SDS_P2;PMS_P1;PMS_P2;Temp;Humidity;BMP_temperature;BMP_pressure;BME280_temperature;BME280_humidity;BME280_pressure;Samples;Min_cycle;Max_cycle;Signal;HPM_P1;HPM_P2
2021/09/23 00:00:23;;;;;;;27.92;20.48;;;12.20;99.90;;;;;;4983608;28;20127;-77
2021/09/23 00:03:09;;;;;;;26.63;20.20;;;12.20;99.90;;;;;;4973715;28;20055;-77
2021/09/23 00:05:39;;;;;;;27.40;21.45;;;12.20;99.90;;;;;;4973572;28;20046;-76
2021/09/23 00:08:08;;;;;;;26.33;19.98;;;12.20;99.90;;;;;;4973567;28;20077;-78
2021/09/23 00:10:39;;;;;;;28.67;19.85;;;12.30;99.90;;;;;;4973090;28;20154;-77
2021/09/23 00:13:08;;;;;;;28.58;20.25;;;12.30;99.90;;;;;;4973599;28;20055;-77
2021/09/23 00:15:36;;;;;;;24.77;19.60;;;12.20;99.90;;;;;;4975067;28;20469;-76
2021/09/23 00:18:06;;;;;;;26.02;20.23;;;12.20;99.90;;;;;;4992413;28;20142;-77
2021/09/23 00:20:36;;;;;;;24.42;19.88;;;12.20;99.90;;;;;;4992531;28;20207;-76
2021/09/23 00:23:03;;;;;;;27.65;19.92;;;12.10;99.90;;;;;;4992675;28;20457;-76
2021/09/23 00:25:30;;;;;;;27.20;19.00;;;12.10;99.90;;;;;;4992506;28;20133;-77
2021/09/23 00:27:58;;;;;;;28.17;19.48;;;12.10;99.90;;;;;;4992265;28;20050;-76
2021/09/23 00:30:27;;;;;;;25.98;19.00;;;12.00;99.90;;;;;;4992075;28;20046;-76
2021/09/23 00:32:54;;;;;;;26.80;19.83;;;12.10;99.90;;;;;;4987581;28;20050;-76
2021/09/23 00:35:21;;;;;;;26.00;19.25;;;12.10;99.90;;;;;;4992541;28;20522;-76
2021/09/23 00:37:48;;;;;;;25.38;18.95;;;12.10;99.90;;;;;;4993504;28;20145;-76
2021/09/23 00:40:17;;;;;;;24.20;19.50;;;12.00;99.90;;;;;;4998716;28;20077;-74
2021/09/23 00:42:47;;;;;;;26.27;19.25;;;12.10;99.90;;;;;;5000505;28;20658;-76
2021/09/23 00:45:14;;;;;;;25.98;18.80;;;12.10;99.90;;;;;;5000718;28;20085;-76
2021/09/23 00:47:43;;;;;;;25.10;18.50;;;12.10;99.90;;;;;;4994901;28;20515;-76
2021/09/23 00:50:11;;;;;;;26.17;19.45;;;12.20;99.90;;;;;;4992882;28;20058;-76
2021/09/23 00:52:39;;;;;;;26.35;19.33;;;12.10;99.90;;;;;;4992315;28;20054;-76
2021/09/23 00:55:08;;;;;;;23.52;18.35;;;12.00;99.90;;;;;;4992386;28;20133;-77
2021/09/23 00:57:36;;;;;;;24.50;19.05;;;12.10;99.90;;;;;;4992444;28;20150;-76
2021/09/23 01:00:05;;;;;;;26.27;19.40;;;12.10;99.90;;;;;;4992312;28;20084;-76
2021/09/23 01:02:32;;;;;;;24.98;18.33;;;12.10;99.90;;;;;;4990535;28;20042;-75
2021/09/23 01:05:01;;;;;;;27.67;20.17;;;12.00;99.90;;;;;;4993462;28;20047;-76
2021/09/23 01:07:28;;;;;;;25.20;19.70;;;12.00;99.90;;;;;;4992701;28;20153;-76
2021/09/23 01:09:56;;;;;;;29.27;19.80;;;12.00;99.90;;;;;;4991937;28;20065;-75
2021/09/23 01:12:25;;;;;;;23.70;19.17;;;12.00;99.90;;;;;;4994056;28;20056;-77
2021/09/23 01:14:54;;;;;;;27.77;19.80;;;12.00;99.90;;;;;;4992002;28;20068;-77
2021/09/23 01:17:21;;;;;;;25.95;20.13;;;11.90;99.90;;;;;;4992008;28;20050;-77
2021/09/23 01:19:48;;;;;;;29.73;21.33;;;11.70;99.90;;;;;;4986254;28;20086;-74
2021/09/23 01:22:17;;;;;;;31.90;22.40;;;11.60;99.90;;;;;;4991789;28;20060;-76
2021/09/23 01:24:45;;;;;;;27.20;22.05;;;11.60;99.90;;;;;;4991544;28;20141;-76
2021/09/23 01:27:13;;;;;;;30.08;21.48;;;11.50;99.90;;;;;;4991872;28;20046;-76
2021/09/23 01:29:42;;;;;;;30.20;22.42;;;11.50;99.90;;;;;;4991286;28;20050;-77
2021/09/23 01:32:10;;;;;;;31.50;21.83;;;11.50;99.90;;;;;;5007975;23;20137;-79
2021/09/23 01:34:37;;;;;;;30.60;22.27;;;11.40;99.90;;;;;;4996166;28;20129;-78
2021/09/23 01:37:05;;;;;;;30.20;22.42;;;11.40;99.90;;;;;;4996869;28;20046;-78
2021/09/23 01:39:33;;;;;;;28.13;21.33;;;11.40;99.90;;;;;;4997053;28;20141;-81
2021/09/23 01:42:01;;;;;;;26.45;21.05;;;11.40;99.90;;;;;;4998105;28;20085;-80
2021/09/23 01:44:27;;;;;;;31.73;20.23;;;11.30;99.90;;;;;;4996636;28;20580;-80
2021/09/23 01:46:54;;;;;;;28.30;21.30;;;11.40;99.90;;;;;;4996474;28;20105;-79
2021/09/23 01:49:21;;;;;;;28.40;20.42;;;11.40;99.90;;;;;;4996259;28;20093;-79
2021/09/23 01:51:48;;;;;;;26.40;19.63;;;11.40;99.90;;;;;;4996959;28;20082;-80
2021/09/23 01:54:17;;;;;;;23.58;18.10;;;11.40;99.90;;;;;;4999610;28;20092;-79
2021/09/23 01:56:46;;;;;;;22.48;18.92;;;11.40;99.90;;;;;;5007514;28;20102;-79
2021/09/23 01:59:12;;;;;;;24.33;18.73;;;11.40;99.90;;;;;;5009414;28;20149;-79
2021/09/23 02:01:39;;;;;;;28.33;19.27;;;11.40;99.90;;;;;;5011984;28;20504;-80
2021/09/23 02:04:06;;;;;;;31.08;20.10;;;11.30;99.90;;;;;;5007648;28;20102;-80
2021/09/23 02:06:33;;;;;;;27.02;19.15;;;11.30;99.90;;;;;;5003046;28;20466;-80
2021/09/23 02:09:00;;;;;;;25.00;18.98;;;11.30;99.90;;;;;;5003759;28;20136;-81
2021/09/23 02:11:27;;;;;;;24.92;19.67;;;11.30;99.90;;;;;;5000904;28;20112;-80
2021/09/23 02:13:55;;;;;;;25.83;19.00;;;11.30;99.90;;;;;;5001337;28;20508;-80
2021/09/23 02:16:22;;;;;;;26.50;19.58;;;11.20;99.90;;;;;;5002132;28;20491;-79
2021/09/23 02:18:49;;;;;;;26.10;19.38;;;11.20;99.90;;;;;;5001701;28;20132;-80
2021/09/23 02:21:16;;;;;;;27.63;20.13;;;11.10;99.90;;;;;;5002918;28;20078;-81
2021/09/23 02:23:43;;;;;;;27.92;19.17;;;11.20;99.90;;;;;;5004594;28;20054;-81
2021/09/23 02:26:11;;;;;;;26.00;19.63;;;11.10;99.90;;;;;;5004685;28;20084;-81
2021/09/23 02:28:39;;;;;;;24.10;18.92;;;11.00;99.90;;;;;;5004143;28;20134;-81
2021/09/23 02:31:08;;;;;;;26.40;19.45;;;11.00;99.90;;;;;;5003781;28;20074;-82
2021/09/23 02:33:35;;;;;;;24.92;20.02;;;11.00;99.90;;;;;;5002756;28;20047;-81
2021/09/23 02:36:02;;;;;;;25.98;19.48;;;11.00;99.90;;;;;;5002071;28;20070;-81
2021/09/23 02:38:30;;;;;;;23.95;19.73;;;10.90;99.90;;;;;;5002116;28;20129;-80
2021/09/23 02:40:56;;;;;;;28.08;19.65;;;10.80;99.90;;;;;;5003345;28;20110;-82
2021/09/23 02:43:25;;;;;;;25.17;19.92;;;10.80;99.90;;;;;;5003089;28;20129;-83
2021/09/23 02:45:52;;;;;;;27.15;19.75;;;10.80;99.90;;;;;;5002893;28;20050;-83
2021/09/23 02:48:20;;;;;;;27.85;20.33;;;10.80;99.90;;;;;;5002785;28;20140;-82
2021/09/23 02:50:47;;;;;;;27.10;19.75;;;10.70;99.90;;;;;;5001789;28;20133;-81
2021/09/23 02:53:14;;;;;;;25.65;20.33;;;10.80;99.90;;;;;;5001978;28;20073;-81
2021/09/23 02:55:41;;;;;;;27.73;21.13;;;10.80;99.90;;;;;;4999839;28;20050;-80
2021/09/23 02:58:08;;;;;;;28.10;20.70;;;10.80;99.90;;;;;;5002501;28;20092;-80
2021/09/23 03:00:35;;;;;;;27.67;21.05;;;10.90;99.90;;;;;;5001971;28;20137;-80
2021/09/23 03:03:04;;;;;;;29.40;20.80;;;10.90;99.90;;;;;;5001984;28;20089;-80
2021/09/23 03:05:32;;;;;;;38.42;20.73;;;11.00;99.90;;;;;;4999871;28;20543;-80
2021/09/23 03:07:59;;;;;;;30.08;21.55;;;11.00;99.90;;;;;;5000337;28;20046;-80
2021/09/23 03:10:26;;;;;;;31.50;21.77;;;11.00;99.90;;;;;;5000203;28;20054;-79
2021/09/23 03:12:53;;;;;;;31.20;20.92;;;11.00;99.90;;;;;;4999789;28;20082;-80
2021/09/23 03:15:20;;;;;;;27.73;20.80;;;11.00;99.90;;;;;;5000582;28;20149;-81
2021/09/23 03:17:47;;;;;;;29.95;21.40;;;11.00;99.90;;;;;;5000543;28;20236;-79
2021/09/23 03:20:15;;;;;;;28.75;21.55;;;11.00;99.90;;;;;;5000542;28;20053;-80
2021/09/23 03:22:43;;;;;;;31.50;21.45;;;11.00;99.90;;;;;;4999189;28;20061;-80
2021/09/23 03:25:11;;;;;;;30.58;20.48;;;10.90;99.90;;;;;;4999823;28;20054;-80
2021/09/23 03:27:38;;;;;;;29.85;22.92;;;10.90;99.90;;;;;;5014798;28;20046;-80
2021/09/23 03:30:05;;;;;;;31.15;21.88;;;10.90;99.90;;;;;;5018570;28;20049;-80
2021/09/23 03:32:32;;;;;;;30.65;22.42;;;10.80;99.90;;;;;;5018857;28;20034;-80
2021/09/23 03:34:59;;;;;;;28.10;21.85;;;10.80;99.90;;;;;;5018912;28;20068;-80
2021/09/23 03:37:26;;;;;;;26.27;20.77;;;10.80;99.90;;;;;;5018442;28;20483;-80
2021/09/23 03:39:54;;;;;;;33.97;22.58;;;10.80;99.90;;;;;;5010880;28;20050;-80
2021/09/23 03:42:21;;;;;;;33.38;22.42;;;10.80;99.90;;;;;;5003353;28;20054;-80
2021/09/23 03:44:48;;;;;;;28.88;21.40;;;10.80;99.90;;;;;;5002645;28;20050;-80
2021/09/23 03:47:15;;;;;;;23.80;19.30;;;10.80;99.90;;;;;;5001037;28;20511;-80
2021/09/23 03:49:42;;;;;;;26.67;19.58;;;10.80;99.90;;;;;;5000723;28;20508;-81
2021/09/23 03:52:09;;;;;;;24.10;19.55;;;10.80;99.90;;;;;;4999154;28;20415;-82
2021/09/23 03:54:36;;;;;;;23.48;19.05;;;10.80;99.90;;;;;;5000260;28;20060;-82
2021/09/23 03:57:04;;;;;;;27.65;19.48;;;10.80;99.90;;;;;;5000019;28;20054;-81
2021/09/23 03:59:31;;;;;;;26.13;19.77;;;10.80;99.90;;;;;;4998574;28;20089;-81
2021/09/23 04:01:58;;;;;;;24.83;18.27;;;10.70;99.90;;;;;;4998755;28;20097;-81
2021/09/23 04:04:25;;;;;;;26.95;18.85;;;10.70;99.90;;;;;;4997883;28;20050;-81
2021/09/23 04:06:51;;;;;;;33.40;19.40;;;10.70;99.90;;;;;;4999755;28;20082;-82
2021/09/23 04:09:18;;;;;;;24.75;18.48;;;10.70;99.90;;;;;;4998834;28;20050;-82
2021/09/23 04:11:45;;;;;;;24.70;18.10;;;10.70;99.90;;;;;;4996518;28;20146;-81
2021/09/23 04:14:14;;;;;;;26.20;18.52;;;10.70;99.90;;;;;;4983793;28;20051;-82
2021/09/23 04:16:40;;;;;;;22.25;17.85;;;10.80;99.90;;;;;;4978356;28;20087;-82
2021/09/23 04:19:08;;;;;;;22.10;17.52;;;10.80;99.90;;;;;;4979384;28;20134;-83
2021/09/23 04:21:34;;;;;;;24.52;17.55;;;10.70;99.90;;;;;;4979781;28;20486;-83
2021/09/23 04:24:01;;;;;;;25.50;17.73;;;10.70;99.90;;;;;;4979897;28;20047;-83
2021/09/23 04:26:28;;;;;;;19.63;16.92;;;10.60;99.90;;;;;;4995301;28;20141;-83
2021/09/23 04:28:57;;;;;;;27.98;18.20;;;10.60;99.90;;;;;;4978193;28;20090;-82
2021/09/23 04:31:25;;;;;;;22.80;17.77;;;10.60;99.90;;;;;;4978790;28;20050;-82
2021/09/23 04:33:52;;;;;;;24.15;17.85;;;10.60;99.90;;;;;;4979322;28;20428;-82
2021/09/23 04:36:53;;;;;;;25.45;17.35;;;10.50;99.90;;;;;;4979848;28;20114;-83
2021/09/23 04:43:08;;;;;;;22.27;16.83;;;10.50;99.90;;;;;;4975470;28;20588;-82
2021/09/23 04:46:20;;;;;;;24.42;17.35;;;10.50;99.90;;;;;;4982647;28;20058;-83
2021/09/23 04:48:58;;;;;;;23.10;17.80;;;10.50;99.90;;;;;;4985250;28;20079;-82
2021/09/23 04:51:30;;;;;;;22.75;17.60;;;10.40;99.90;;;;;;4984976;28;20050;-83
2021/09/23 04:54:03;;;;;;;24.13;18.23;;;10.40;99.90;;;;;;4984877;28;20054;-81
2021/09/23 04:56:31;;;;;;;24.42;18.83;;;10.40;99.90;;;;;;4979272;28;20308;-80
2021/09/23 04:58:58;;;;;;;23.10;17.88;;;10.40;99.90;;;;;;4985179;28;20074;-80
2021/09/23 05:01:24;;;;;;;24.05;17.73;;;10.40;99.90;;;;;;5001295;28;20110;-81
2021/09/23 05:04:06;;;;;;;25.80;18.42;;;10.40;99.90;;;;;;5001783;28;20141;-82
2021/09/23 05:06:36;;;;;;;27.65;19.40;;;10.40;99.90;;;;;;5001866;28;20126;-81
2021/09/23 05:09:03;;;;;;;20.63;16.80;;;10.40;99.90;;;;;;5001018;28;20074;-82
2021/09/23 05:11:30;;;;;;;22.15;17.00;;;10.40;99.90;;;;;;5000593;28;20118;-82
2021/09/23 05:13:57;;;;;;;26.25;17.98;;;10.40;99.90;;;;;;4997546;28;20085;-80
2021/09/23 05:16:23;;;;;;;21.50;16.88;;;10.40;99.90;;;;;;4999564;28;20110;-82
2021/09/23 05:18:50;;;;;;;22.45;17.23;;;10.40;99.90;;;;;;5000680;28;20137;-81
2021/09/23 05:21:19;;;;;;;23.58;17.17;;;10.50;99.90;;;;;;5001818;28;20077;-81
2021/09/23 05:23:45;;;;;;;25.98;16.58;;;10.50;99.90;;;;;;5003928;28;20420;-81
2021/09/23 05:26:12;;;;;;;25.33;17.23;;;10.50;99.90;;;;;;5001504;28;20085;-82
2021/09/23 05:28:39;;;;;;;25.05;17.85;;;10.50;99.90;;;;;;4999118;28;20133;-82
2021/09/23 05:31:07;;;;;;;25.92;18.70;;;10.50;99.90;;;;;;5000060;28;20070;-82
2021/09/23 05:33:33;;;;;;;26.85;16.55;;;10.60;99.90;;;;;;5001612;28;20050;-81
2021/09/23 05:36:00;;;;;;;26.88;16.65;;;10.60;99.90;;;;;;5001894;28;20081;-81
2021/09/23 05:38:29;;;;;;;18.67;16.23;;;10.60;99.90;;;;;;5001939;28;20129;-81
2021/09/23 05:40:59;;;;;;;21.20;15.68;;;10.70;99.90;;;;;;5000983;28;20074;-81
2021/09/23 05:43:26;;;;;;;24.02;15.80;;;10.60;99.90;;;;;;4984959;28;20167;-82
2021/09/23 05:45:54;;;;;;;20.70;15.77;;;10.70;99.90;;;;;;4981342;28;20086;-81
2021/09/23 05:48:21;;;;;;;25.33;16.70;;;10.70;99.90;;;;;;4981695;28;20047;-82
2021/09/23 05:50:48;;;;;;;25.85;16.88;;;10.70;99.90;;;;;;4980828;28;20086;-82
2021/09/23 05:53:15;;;;;;;21.13;15.80;;;10.80;99.90;;;;;;4981329;28;20134;-83
2021/09/23 05:55:43;;;;;;;22.65;15.75;;;10.80;99.90;;;;;;4982216;28;20055;-83
2021/09/23 05:58:10;;;;;;;23.88;15.95;;;10.70;99.90;;;;;;4983197;28;20043;-84
2021/09/23 06:00:37;;;;;;;23.75;15.30;;;10.70;99.90;;;;;;4983898;28;20047;-84
2021/09/23 06:03:04;;;;;;;24.92;15.45;;;10.70;99.90;;;;;;4989669;28;20082;-86
2021/09/23 06:05:31;;;;;;;27.10;16.50;;;10.60;99.90;;;;;;4986003;28;20079;-86
2021/09/23 06:07:58;;;;;;;23.98;16.60;;;10.60;99.90;;;;;;4984561;28;20414;-87
2021/09/23 06:10:25;;;;;;;20.50;15.27;;;10.60;99.90;;;;;;4983970;28;20134;-86
2021/09/23 06:12:53;;;;;;;23.35;16.90;;;10.70;99.90;;;;;;4981122;28;20110;-86
2021/09/23 06:15:20;;;;;;;22.67;15.35;;;10.70;99.90;;;;;;4981631;28;20082;-86
2021/09/23 06:17:47;;;;;;;24.52;16.15;;;10.90;99.90;;;;;;4981199;28;20114;-82
2021/09/23 06:20:14;;;;;;;23.42;16.27;;;11.10;99.90;;;;;;4980828;28;20082;-82
2021/09/23 06:22:41;;;;;;;22.02;14.80;;;11.20;99.90;;;;;;4980803;28;20565;-85
2021/09/23 06:25:09;;;;;;;22.20;14.70;;;11.30;99.90;;;;;;4981780;28;20138;-85
2021/09/23 06:27:38;;;;;;;20.80;12.30;;;11.50;99.90;;;;;;4981396;28;20576;-86
2021/09/23 06:30:08;;;;;;;19.85;10.77;;;12.10;99.90;;;;;;4979975;28;20066;-84
2021/09/23 06:32:37;;;;;;;20.20;11.00;;;12.80;99.90;;;;;;4980258;28;20050;-85
2021/09/23 06:35:04;;;;;;;19.23;10.68;;;13.70;99.90;;;;;;4980767;28;20059;-81
2021/09/23 06:37:32;;;;;;;18.33;9.48;;;14.50;99.90;;;;;;4980708;28;20047;-84
2021/09/23 06:39:59;;;;;;;18.98;9.52;;;15.30;99.90;;;;;;4980874;28;20074;-86
2021/09/23 06:42:26;;;;;;;12.20;8.35;;;16.10;99.90;;;;;;4983325;28;20109;-85
2021/09/23 06:44:53;;;;;;;12.45;8.82;;;16.80;99.90;;;;;;4982519;28;20564;-85
2021/09/23 06:47:21;;;;;;;13.70;9.00;;;17.40;99.90;;;;;;4980900;28;20095;-84
2021/09/23 06:49:51;;;;;;;13.20;9.00;;;17.90;99.90;;;;;;4981597;28;20055;-85
2021/09/23 06:52:20;;;;;;;13.10;8.07;;;18.60;99.90;;;;;;4981478;28;20094;-84
2021/09/23 06:54:47;;;;;;;14.00;8.35;;;19.20;99.90;;;;;;4987743;28;20137;-85
2021/09/23 06:57:14;;;;;;;16.25;8.48;;;19.70;99.90;;;;;;4987111;28;20071;-86
2021/09/23 06:59:41;;;;;;;14.90;9.00;;;20.20;99.90;;;;;;4986940;28;20386;-86
2021/09/23 07:02:08;;;;;;;14.60;8.93;;;20.50;99.90;;;;;;4987829;28;20074;-86
2021/09/23 07:04:36;;;;;;;11.70;7.05;;;20.50;99.90;;;;;;4986987;28;20505;-87
2021/09/23 07:07:03;;;;;;;8.15;6.13;;;20.40;99.90;;;;;;4984540;28;20126;-86
2021/09/23 07:09:30;;;;;;;8.65;7.03;;;20.40;99.90;;;;;;4988016;28;20054;-85
2021/09/23 07:12:02;;;;;;;14.20;7.05;;;20.60;99.90;;;;;;4988671;28;20070;-85
2021/09/23 07:14:31;;;;;;;12.00;7.22;;;20.60;99.90;;;;;;4988717;28;20110;-86
2021/09/23 07:17:09;;;;;;;9.50;6.50;;;20.70;99.90;;;;;;4986459;28;20057;-81
2021/09/23 07:19:50;;;;;;;11.77;6.53;;;20.80;99.90;;;;;;4986489;28;20152;-83
2021/09/23 07:22:17;;;;;;;9.40;6.60;;;20.90;99.90;;;;;;4988082;28;20054;-84
2021/09/23 07:24:49;;;;;;;9.88;6.55;;;21.00;99.90;;;;;;4988269;28;20051;-82
2021/09/23 07:27:16;;;;;;;9.07;6.38;;;21.30;99.90;;;;;;4988125;28;20046;-85
2021/09/23 07:29:43;;;;;;;8.95;6.00;;;21.30;99.90;;;;;;4988382;28;20081;-86
2021/09/23 07:32:15;;;;;;;9.73;6.47;;;21.50;99.90;;;;;;5020446;23;20054;-75
2021/09/23 07:34:54;;;;;;;13.38;6.60;;;21.50;99.90;;;;;;4958733;28;20568;-76
2021/09/23 07:37:33;;;;;;;9.90;6.28;;;21.40;99.90;;;;;;4974797;28;20119;-76
2021/09/23 07:40:01;;;;;;;8.70;6.40;;;21.40;99.90;;;;;;4974396;28;20528;-76
2021/09/23 07:42:47;;;;;;;11.85;6.28;;;21.50;99.90;;;;;;4972951;28;20523;-76
2021/09/23 07:45:39;;;;;;;10.13;6.95;;;21.70;99.90;;;;;;4974681;28;20054;-77
2021/09/23 07:48:16;;;;;;;10.80;6.18;;;21.70;99.90;;;;;;4972971;28;20058;-74
2021/09/23 07:50:54;;;;;;;8.23;6.70;;;21.40;99.90;;;;;;4974553;28;20458;-76
2021/09/23 07:53:21;;;;;;;10.07;5.85;;;21.30;99.90;;;;;;4973683;28;20082;-76
2021/09/23 07:55:49;;;;;;;11.80;6.38;;;21.40;99.90;;;;;;4974615;28;20063;-76
2021/09/23 07:58:20;;;;;;;9.00;5.88;;;21.30;99.90;;;;;;4974294;28;20059;-76
2021/09/23 08:00:55;;;;;;;7.22;6.15;;;21.20;99.90;;;;;;4974528;28;20054;-77
2021/09/23 08:03:29;;;;;;;9.82;5.72;;;21.40;99.90;;;;;;4974141;28;20046;-75
2021/09/23 08:05:58;;;;;;;9.18;6.18;;;21.60;99.90;;;;;;4974075;28;20051;-76
2021/09/23 08:08:37;;;;;;;8.88;6.63;;;21.50;99.90;;;;;;4974308;28;20058;-76
2021/09/23 08:11:06;;;;;;;11.10;6.70;;;21.30;99.90;;;;;;4973994;28;20105;-78
2021/09/23 08:13:48;;;;;;;12.65;6.70;;;21.10;99.90;;;;;;4973870;28;20086;-78
2021/09/23 08:16:15;;;;;;;10.57;6.70;;;21.00;99.90;;;;;;4974180;28;20051;-77
2021/09/23 08:18:44;;;;;;;10.82;6.35;;;20.90;99.90;;;;;;4974291;28;20621;-78
2021/09/23 08:21:17;;;;;;;10.13;6.30;;;20.80;99.90;;;;;;4973606;28;20047;-78
2021/09/23 08:26:56;;;;;;;10.00;6.20;;;20.90;99.90;;;;;;4972581;28;20138;-77
2021/09/23 08:29:40;;;;;;;13.05;6.75;;;21.00;99.90;;;;;;4974399;28;20058;-77
2021/09/23 08:32:29;;;;;;;9.02;6.32;;;21.30;99.90;;;;;;4973792;28;20481;-78
2021/09/23 08:35:09;;;;;;;9.63;6.10;;;21.70;99.90;;;;;;4974543;28;20081;-78
2021/09/23 08:37:39;;;;;;;10.80;6.47;;;21.90;99.90;;;;;;4976777;28;20189;-80
2021/09/23 08:40:47;;;;;;;16.65;6.95;;;21.90;99.90;;;;;;4973210;28;20074;-78
2021/09/23 08:43:47;;;;;;;9.10;6.32;;;21.80;99.90;;;;;;4972063;28;20047;-78
2021/09/23 08:49:48;;;;;;;13.55;6.35;;;21.40;99.90;;;;;;4971039;28;20046;-78
2021/09/23 08:52:40;;;;;;;8.13;6.22;;;21.20;99.90;;;;;;4973352;28;20047;-77
2021/09/23 09:01:51;;;;;;;10.60;6.10;;;21.20;99.90;;;;;;4917203;28;20062;-78
2021/09/23 09:07:33;;;;;;;11.90;6.53;;;21.40;99.90;;;;;;4906719;28;20055;-78
2021/09/23 09:10:13;;;;;;;10.82;6.63;;;21.20;99.90;;;;;;4970334;28;20465;-78
2021/09/23 09:12:45;;;;;;;18.05;6.07;;;21.00;99.90;;;;;;4970516;28;20042;-78
2021/09/23 09:15:13;;;;;;;8.02;6.10;;;20.80;99.90;;;;;;4963988;28;20062;-77
2021/09/23 09:17:41;;;;;;;11.90;6.38;;;20.60;99.90;;;;;;4971765;28;20051;-76
2021/09/23 09:20:09;;;;;;;10.52;6.63;;;20.50;99.90;;;;;;4971611;28;20483;-78
2021/09/23 09:22:37;;;;;;;12.70;6.30;;;20.40;99.90;;;;;;4971925;28;20068;-79
2021/09/23 09:25:08;;;;;;;11.10;6.07;;;20.40;99.90;;;;;;4972056;28;20061;-76
2021/09/23 09:27:37;;;;;;;11.67;6.60;;;20.40;99.90;;;;;;4972114;28;20493;-78
2021/09/23 09:30:10;;;;;;;12.38;6.97;;;20.30;99.90;;;;;;4971962;28;20078;-77
2021/09/23 09:32:44;;;;;;;10.10;6.72;;;20.30;99.90;;;;;;4972489;28;20085;-77
2021/09/23 09:35:15;;;;;;;10.15;6.07;;;20.20;99.90;;;;;;4972731;28;20137;-77
2021/09/23 09:37:45;;;;;;;11.88;7.35;;;20.00;99.90;;;;;;4972343;28;20057;-75
2021/09/23 09:40:16;;;;;;;12.15;6.20;;;19.90;99.90;;;;;;4972617;28;20146;-76
2021/09/23 09:42:45;;;;;;;8.38;6.10;;;19.90;99.90;;;;;;4972263;28;20126;-79
2021/09/23 09:45:20;;;;;;;9.20;6.20;;;20.00;99.90;;;;;;4972336;28;20517;-77
2021/09/23 09:47:53;;;;;;;10.57;6.13;;;20.00;99.90;;;;;;4963712;28;20059;-81
2021/09/23 09:50:20;;;;;;;;;;;20.10;99.90;;;;;;4970582;28;20057;-78
2021/09/23 09:52:56;;;;;;;10.27;6.35;;;20.00;99.90;;;;;;4971789;28;20427;-77
2021/09/23 09:55:25;;;;;;;11.10;6.03;;;20.00;99.90;;;;;;4967757;28;20111;-78
2021/09/23 09:57:53;;;;;;;10.77;6.10;;;20.10;99.90;;;;;;4972298;28;20096;-77
2021/09/23 10:00:24;;;;;;;10.32;5.95;;;20.20;99.90;;;;;;4969499;28;20405;-77
2021/09/23 10:02:52;;;;;;;9.27;6.10;;;20.30;99.90;;;;;;4971682;28;20133;-76
2021/09/23 10:05:21;;;;;;;7.30;5.70;;;20.40;99.90;;;;;;4971594;28;20053;-78
2021/09/23 10:07:51;;;;;;;9.75;6.00;;;20.40;99.90;;;;;;4967966;28;20047;-78
2021/09/23 10:10:19;;;;;;;13.50;6.38;;;20.50;99.90;;;;;;4962869;28;20051;-76
2021/09/23 10:12:49;;;;;;;9.40;6.28;;;20.60;99.90;;;;;;4964573;28;20489;-78
2021/09/23 10:15:18;;;;;;;11.73;5.60;;;20.70;99.90;;;;;;4973772;28;20054;-76
2021/09/23 10:17:50;;;;;;;12.68;6.00;;;20.80;99.90;;;;;;4976789;28;20051;-76
2021/09/23 10:20:19;;;;;;;12.07;6.10;;;20.80;99.90;;;;;;4975363;28;20057;-76
2021/09/23 10:22:50;;;;;;;10.25;6.25;;;20.80;99.90;;;;;;4976315;28;20296;-77
2021/09/23 10:25:22;;;;;;;13.32;5.80;;;20.80;99.90;;;;;;4976734;28;20138;-76
2021/09/23 10:28:01;;;;;;;10.60;5.97;;;20.90;99.90;;;;;;4970970;28;20369;-75
2021/09/23 10:30:31;;;;;;;8.73;6.10;;;21.10;99.90;;;;;;4968832;28;20051;-76
2021/09/23 10:33:02;;;;;;;9.70;5.95;;;21.10;99.90;;;;;;4960594;28;20401;-76
2021/09/23 10:35:31;;;;;;;7.75;5.78;;;21.20;99.90;;;;;;4972485;28;20051;-75
2021/09/23 10:38:00;;;;;;;11.63;5.35;;;21.30;99.90;;;;;;4971388;28;20106;-77
2021/09/23 10:40:28;;;;;;;10.75;5.57;;;21.40;99.90;;;;;;4964483;28;20074;-76
2021/09/23 10:42:59;;;;;;;8.77;5.25;;;21.50;99.90;;;;;;4960148;28;20539;-77
2021/09/23 10:45:28;;;;;;;11.48;5.53;;;21.60;99.90;;;;;;4971868;28;20165;-77
2021/09/23 10:47:58;;;;;;;11.38;5.18;;;21.60;99.90;;;;;;4959466;28;20457;-77
2021/09/23 10:50:27;;;;;;;11.40;5.22;;;21.60;99.90;;;;;;4970233;28;20498;-77
2021/09/23 10:52:55;;;;;;;8.98;5.70;;;21.70;99.90;;;;;;4972460;28;20053;-77
2021/09/23 10:55:24;;;;;;;10.15;5.82;;;21.70;99.90;;;;;;4958506;28;20054;-76
2021/09/23 10:57:52;;;;;;;9.98;5.45;;;21.70;99.90;;;;;;4961774;28;20114;-77
2021/09/23 11:00:25;;;;;;;7.18;5.47;;;21.60;99.90;;;;;;4955394;28;20480;-77
2021/09/23 11:02:53;;;;;;;7.57;5.68;;;21.60;99.90;;;;;;4969697;28;20042;-75
2021/09/23 11:05:21;;;;;;;10.02;5.40;;;21.70;99.90;;;;;;4972466;28;20055;-77
2021/09/23 11:07:50;;;;;;;10.57;5.57;;;21.70;99.90;;;;;;4974655;28;20047;-77
2021/09/23 11:10:18;;;;;;;9.65;5.13;;;21.80;99.90;;;;;;4970164;28;20050;-77
2021/09/23 11:12:48;;;;;;;12.50;6.10;;;21.90;99.90;;;;;;4970941;28;20141;-77
2021/09/23 11:15:18;;;;;;;8.38;5.40;;;21.90;99.90;;;;;;4974785;28;20086;-77
2021/09/23 11:17:51;;;;;;;9.95;5.40;;;22.00;99.90;;;;;;4975322;28;20055;-78
2021/09/23 11:20:21;;;;;;;11.20;5.32;;;22.00;99.90;;;;;;4975472;28;20401;-77
2021/09/23 11:22:51;;;;;;;9.30;5.13;;;22.10;99.90;;;;;;4971181;28;20518;-80
2021/09/23 11:25:24;;;;;;;8.15;4.95;;;22.20;99.90;;;;;;4955791;28;20149;-79
2021/09/23 11:27:52;;;;;;;8.88;5.72;;;22.20;99.90;;;;;;4954661;28;20137;-78
2021/09/23 11:30:24;;;;;;;9.75;5.55;;;22.20;99.90;;;;;;4957463;28;20121;-76
2021/09/23 11:32:54;;;;;;;;;;;22.20;99.90;;;;;;4974528;28;20047;-74
2021/09/23 11:35:23;;;;;;;10.55;5.60;;;22.20;99.90;;;;;;4974578;28;19970;-77
2021/09/23 11:37:51;;;;;;;7.68;4.90;;;22.20;99.90;;;;;;4974763;28;20193;-77
2021/09/23 11:40:22;;;;;;;9.82;5.97;;;22.20;99.90;;;;;;4974036;28;20137;-77
2021/09/23 11:42:49;;;;;;;8.73;6.03;;;22.20;99.90;;;;;;4974503;28;20047;-78
2021/09/23 11:45:19;;;;;;;8.02;5.40;;;22.10;99.90;;;;;;4975601;28;20050;-77
2021/09/23 11:47:52;;;;;;;9.48;5.10;;;22.10;99.90;;;;;;4976336;28;20137;-78
2021/09/23 11:50:36;;;;;;;8.52;5.63;;;22.10;99.90;;;;;;4973830;28;20448;-82
2021/09/23 11:53:09;;;;;;;10.35;5.43;;;22.10;99.90;;;;;;4974100;28;20442;-76
2021/09/23 11:55:41;;;;;;;8.60;5.30;;;22.10;99.90;;;;;;4973666;28;20066;-76
2021/09/23 11:58:09;;;;;;;8.82;5.72;;;22.20;99.90;;;;;;4973595;28;20051;-76
2021/09/23 12:00:40;;;;;;;11.05;5.57;;;22.30;99.90;;;;;;4973695;28;20142;-77
2021/09/23 12:03:07;;;;;;;12.20;5.45;;;22.30;99.90;;;;;;4973652;28;20138;-75
2021/09/23 12:05:36;;;;;;;10.45;5.65;;;22.20;99.90;;;;;;4973625;28;20047;-77
2021/09/23 12:08:09;;;;;;;10.20;5.88;;;22.20;99.90;;;;;;4973693;28;20051;-76
2021/09/23 12:10:54;;;;;;;10.93;5.68;;;22.00;99.90;;;;;;4974636;28;20481;-80
2021/09/23 12:13:29;;;;;;;10.13;5.95;;;22.00;99.90;;;;;;4974868;28;20141;-78
2021/09/23 12:15:59;;;;;;;12.05;5.78;;;22.00;99.90;;;;;;4976750;28;20055;-78
2021/09/23 12:18:27;;;;;;;10.13;5.75;;;22.10;99.90;;;;;;4973740;28;20050;-76
2021/09/23 12:20:59;;;;;;;9.77;5.65;;;22.20;99.90;;;;;;4973129;28;20051;-76
2021/09/23 12:23:34;;;;;;;7.45;5.55;;;22.20;99.90;;;;;;4974888;28;20057;-76
2021/09/23 12:26:23;;;;;;;11.68;5.68;;;22.10;99.90;;;;;;4976891;28;20496;-77
2021/09/23 12:28:58;;;;;;;10.50;5.63;;;22.00;99.90;;;;;;4980317;28;20055;-78
2021/09/23 12:31:40;;;;;;;11.50;6.72;;;21.90;99.90;;;;;;4990582;28;20059;-81
2021/09/23 12:34:10;;;;;;;8.80;5.90;;;21.90;99.90;;;;;;4993442;28;20071;-82
2021/09/23 12:36:40;;;;;;;8.68;5.38;;;21.90;99.90;;;;;;4982280;28;20097;-76
2021/09/23 12:39:19;;;;;;;7.63;5.80;;;22.10;99.90;;;;;;4978270;28;20061;-78
2021/09/23 12:42:04;;;;;;;15.10;6.07;;;22.10;99.90;;;;;;4977983;28;20142;-77
2021/09/23 12:44:33;;;;;;;8.10;5.65;;;22.10;99.90;;;;;;4978088;28;20054;-77
2021/09/23 12:47:12;;;;;;;12.02;6.60;;;22.10;99.90;;;;;;4978091;28;20536;-79
2021/09/23 12:49:42;;;;;;;11.75;7.28;;;22.00;99.90;;;;;;4975375;28;20054;-76
2021/09/23 12:52:16;;;;;;;17.00;6.80;;;22.00;99.90;;;;;;4973162;28;20054;-80
2021/09/23 12:54:52;;;;;;;8.27;5.50;;;22.00;99.90;;;;;;4973278;28;20058;-78
2021/09/23 12:57:21;;;;;;;10.50;5.93;;;22.00;99.90;;;;;;4973725;28;20051;-77
2021/09/23 12:59:48;;;;;;;12.38;6.38;;;22.00;99.90;;;;;;4972878;28;20050;-79
2021/09/23 13:02:17;;;;;;;8.57;5.40;;;22.00;99.90;;;;;;4972699;28;20109;-77
2021/09/23 13:04:59;;;;;;;9.57;6.00;;;22.00;99.90;;;;;;4972652;28;20055;-78
2021/09/23 13:07:28;;;;;;;13.38;6.72;;;22.00;99.90;;;;;;4973620;28;20226;-76